createdAt,value
2023-05-14T00:00:58.689Z,249.48
2023-05-14T00:01:58.790Z,252.06
2023-05-14T00:02:58.924Z,251.20
2023-05-14T00:03:58.921Z,250.42
2023-05-14T00:04:58.852Z,254.83
2023-05-14T00:05:58.912Z,255.64
2023-05-14T00:07:32.808Z,25.00
2023-05-14T00:08:32.813Z,25.00
2023-05-14T00:09:32.832Z,25.00
2023-05-14T00:10:32.773Z,25.00
2023-05-14T00:11:32.776Z,25.00
2023-05-14T00:12:32.790Z,24.94
2023-05-14T00:13:32.749Z,25.49
2023-05-14T00:14:32.749Z,33.65
2023-05-14T00:15:34.358Z,53.01
2023-05-14T00:16:32.894Z,79.20
2023-05-14T00:17:32.908Z,94.93
2023-05-14T00:18:32.777Z,92.82
2023-05-14T00:19:32.732Z,78.12
2023-05-14T00:20:32.725Z,73.24
2023-05-14T00:21:32.701Z,71.64
2023-05-14T00:22:32.698Z,58.19
2023-05-14T00:23:32.723Z,8.58
2023-05-14T00:24:32.713Z,4.73
2023-05-14T00:25:32.799Z,28.84
2023-05-14T00:26:32.782Z,28.35
2023-05-14T00:27:32.794Z,29.62
2023-05-14T00:28:32.857Z,31.46
2023-05-14T00:29:32.912Z,47.48
2023-05-14T00:30:32.907Z,56.56
2023-05-14T00:31:33.002Z,52.38
2023-05-14T00:32:33.027Z,24.86
2023-05-14T00:33:33.102Z,36.62
2023-05-14T00:34:33.145Z,61.00
2023-05-14T00:35:33.210Z,49.58
2023-05-14T00:36:33.198Z,33.71
2023-05-14T00:37:33.228Z,32.62
2023-05-14T00:38:33.268Z,48.42
2023-05-14T00:39:33.339Z,58.95
2023-05-14T00:40:33.354Z,73.91
2023-05-14T00:41:33.344Z,53.94
2023-05-14T00:42:33.317Z,67.97
2023-05-14T00:43:33.309Z,83.77
2023-05-14T00:44:33.362Z,72.49
2023-05-14T00:45:33.379Z,58.99
2023-05-14T00:46:33.422Z,66.12
2023-05-14T00:47:33.434Z,57.51
2023-05-14T00:48:33.379Z,20.56
2023-05-14T00:49:33.474Z,16.97
2023-05-14T00:50:33.480Z,20.72
2023-05-14T00:51:33.533Z,23.11
2023-05-14T00:52:33.580Z,36.12
2023-05-14T00:53:33.601Z,32.14
2023-05-14T00:54:33.651Z,38.95
2023-05-14T00:55:33.697Z,25.88
2023-05-14T00:56:33.711Z,23.02
2023-05-14T00:57:33.731Z,29.95
2023-05-14T00:58:33.813Z,25.74
2023-05-14T00:59:33.846Z,30.67
2023-05-14T01:00:33.873Z,47.09
2023-05-14T01:01:33.886Z,25.75
2023-05-14T01:02:33.940Z,42.04
2023-05-14T01:03:34.013Z,23.84
2023-05-14T01:04:33.916Z,28.75
2023-05-14T01:05:33.934Z,31.99
2023-05-14T01:06:33.946Z,25.00
2023-05-14T01:07:33.935Z,32.46
2023-05-14T01:08:33.952Z,53.23
2023-05-14T01:09:34.045Z,66.78
2023-05-14T01:10:33.967Z,79.22
2023-05-14T01:11:34.013Z,51.01
2023-05-14T01:12:34.087Z,67.24
2023-05-14T01:13:34.150Z,58.30
2023-05-14T01:14:34.236Z,27.59
2023-05-14T01:15:34.246Z,22.73
2023-05-14T01:16:34.346Z,25.00
2023-05-14T01:17:34.389Z,29.34
2023-05-14T01:18:34.506Z,48.26
2023-05-14T01:19:34.462Z,37.47
2023-05-14T01:20:34.493Z,37.46
2023-05-14T01:21:34.517Z,37.19
2023-05-14T01:22:34.502Z,33.78
2023-05-14T01:23:34.498Z,25.01
2023-05-14T01:24:34.551Z,28.26
2023-05-14T01:25:34.541Z,48.24
2023-05-14T01:26:34.527Z,62.84
2023-05-14T01:27:34.512Z,79.81
2023-05-14T01:28:34.542Z,114.42
2023-05-14T01:29:34.564Z,159.49
2023-05-14T01:30:34.595Z,219.85
2023-05-14T01:31:34.574Z,246.26
2023-05-14T01:32:34.612Z,249.64
2023-05-14T01:33:34.569Z,247.93
2023-05-14T01:34:34.641Z,242.36
2023-05-14T01:35:34.649Z,246.04
2023-05-14T01:36:34.661Z,249.16
2023-05-14T01:37:34.662Z,250.00
2023-05-14T01:38:34.697Z,248.69
2023-05-14T01:39:34.735Z,250.00
2023-05-14T01:40:34.742Z,248.92
2023-05-14T01:41:34.764Z,235.10
2023-05-14T01:42:34.753Z,228.43
2023-05-14T01:43:34.883Z,226.21
2023-05-14T01:44:34.847Z,233.71
2023-05-14T01:45:34.859Z,254.00
2023-05-14T01:46:34.840Z,245.83
2023-05-14T01:47:34.875Z,242.12
2023-05-14T01:48:34.858Z,247.17
2023-05-14T01:49:34.894Z,249.62
2023-05-14T01:50:34.845Z,239.56
2023-05-14T01:51:34.857Z,230.44
2023-05-14T01:52:34.844Z,196.37
2023-05-14T01:53:34.901Z,166.55
2023-05-14T01:54:34.854Z,154.65
2023-05-14T01:55:34.967Z,143.83
2023-05-14T01:56:34.956Z,127.15
2023-05-14T01:57:34.995Z,124.71
2023-05-14T01:58:34.953Z,116.79
2023-05-14T01:59:34.995Z,112.02
2023-05-14T02:00:35.019Z,109.83
2023-05-14T02:01:35.043Z,140.05
2023-05-14T02:02:35.120Z,145.67
2023-05-14T02:03:35.098Z,155.70
2023-05-14T02:04:35.079Z,158.89
2023-05-14T02:05:35.086Z,154.71
2023-05-14T02:06:35.145Z,147.07
2023-05-14T02:07:35.209Z,141.74
2023-05-14T02:08:35.231Z,150.43
2023-05-14T02:09:35.307Z,158.06
2023-05-14T02:10:35.363Z,162.27
2023-05-14T02:11:35.358Z,151.70
2023-05-14T02:12:35.427Z,153.93
2023-05-14T02:13:35.442Z,159.52
2023-05-14T02:14:35.492Z,170.42
2023-05-14T02:15:35.493Z,188.48
2023-05-14T02:16:35.696Z,200.12
2023-05-14T02:17:35.665Z,213.86
2023-05-14T02:18:35.705Z,216.93
2023-05-14T02:19:35.641Z,214.51
2023-05-14T02:20:35.693Z,195.98
2023-05-14T02:21:35.655Z,213.23
2023-05-14T02:22:35.697Z,222.32
2023-05-14T02:23:41.572Z,227.16
2023-05-14T02:24:36.732Z,227.49
2023-05-14T02:25:35.740Z,227.98
2023-05-14T02:26:35.736Z,212.29
2023-05-14T02:27:35.711Z,217.47
2023-05-14T02:28:35.659Z,213.93
2023-05-14T02:29:35.685Z,225.92
2023-05-14T02:30:35.686Z,230.64
2023-05-14T02:31:35.712Z,225.27
2023-05-14T02:32:35.771Z,237.88
2023-05-14T02:33:35.793Z,240.79
2023-05-14T02:34:35.624Z,247.55
2023-05-14T02:35:35.645Z,251.23
2023-05-14T02:36:35.672Z,248.75
2023-05-14T02:37:35.638Z,249.43
2023-05-14T02:38:35.629Z,250.00
2023-05-14T02:39:35.649Z,243.54
2023-05-14T02:40:35.609Z,235.91
2023-05-14T02:41:35.595Z,233.24
2023-05-14T02:42:35.638Z,213.42
2023-05-14T02:43:35.580Z,204.82
2023-05-14T02:44:35.619Z,183.87
2023-05-14T02:45:35.690Z,154.57
2023-05-14T02:46:35.693Z,139.87
2023-05-14T02:47:37.823Z,134.27
2023-05-14T02:48:35.847Z,117.78
2023-05-14T02:49:35.850Z,90.69
2023-05-14T02:50:35.924Z,78.03
2023-05-14T02:51:35.868Z,72.66
2023-05-14T02:52:35.930Z,71.14
2023-05-14T02:53:35.934Z,75.35
2023-05-14T02:54:35.934Z,120.68
2023-05-14T02:55:35.999Z,119.91
2023-05-14T02:56:36.157Z,152.32
2023-05-14T02:57:36.101Z,166.79
2023-05-14T02:58:36.189Z,167.65
2023-05-14T02:59:36.209Z,171.90
2023-05-14T03:00:36.261Z,145.62
2023-05-14T03:01:36.291Z,117.31
2023-05-14T03:02:36.390Z,100.39
2023-05-14T03:03:36.294Z,77.85
2023-05-14T03:04:36.300Z,77.38
2023-05-14T03:05:36.633Z,99.07
2023-05-14T03:06:36.330Z,105.82
2023-05-14T03:07:36.328Z,113.35
2023-05-14T03:08:36.326Z,106.44
2023-05-14T03:09:38.295Z,99.90
2023-05-14T03:10:36.424Z,102.46
2023-05-14T03:11:44.050Z,103.98
2023-05-14T03:12:36.472Z,104.48
2023-05-14T03:13:36.381Z,105.26
2023-05-14T03:14:36.367Z,106.61
2023-05-14T03:15:36.387Z,108.16
2023-05-14T03:16:36.396Z,109.47
2023-05-14T03:17:36.466Z,106.81
2023-05-14T03:18:36.366Z,121.20
2023-05-14T03:19:36.356Z,121.08
2023-05-14T03:20:36.370Z,118.51
2023-05-14T03:21:36.382Z,110.58
2023-05-14T03:22:36.326Z,112.67
2023-05-14T03:23:36.361Z,113.08
2023-05-14T03:24:36.382Z,96.16
2023-05-14T03:25:36.435Z,102.97
2023-05-14T03:26:36.319Z,106.56
2023-05-14T03:27:37.004Z,112.52
2023-05-14T03:28:36.289Z,103.27
2023-05-14T03:29:36.281Z,112.77
2023-05-14T03:30:36.415Z,113.68
2023-05-14T03:31:36.275Z,104.23
2023-05-14T03:32:36.311Z,104.19
2023-05-14T03:33:36.293Z,110.89
2023-05-14T03:34:36.232Z,91.49
2023-05-14T03:35:36.297Z,86.73
2023-05-14T03:36:36.343Z,98.98
2023-05-14T03:37:36.362Z,97.01
2023-05-14T03:38:36.393Z,103.04
2023-05-14T03:39:36.478Z,100.00
2023-05-14T03:40:36.518Z,94.44
2023-05-14T03:41:36.489Z,72.97
2023-05-14T03:42:36.497Z,61.77
2023-05-14T03:43:36.580Z,52.74
2023-05-14T03:44:36.610Z,56.92
2023-05-14T03:45:36.614Z,57.88
2023-05-14T03:46:36.684Z,76.01
2023-05-14T03:47:36.747Z,98.56
2023-05-14T03:48:36.781Z,121.31
2023-05-14T03:49:36.692Z,123.09
2023-05-14T03:50:36.701Z,120.04
2023-05-14T03:51:36.756Z,119.09
2023-05-14T03:52:36.846Z,112.09
2023-05-14T03:53:36.865Z,118.79
2023-05-14T03:54:36.962Z,134.10
2023-05-14T03:55:37.014Z,138.75
2023-05-14T03:56:37.067Z,139.70
2023-05-14T03:57:37.071Z,154.36
2023-05-14T03:58:37.076Z,165.26
2023-05-14T03:59:45.085Z,155.50
2023-05-14T04:00:37.084Z,155.57
2023-05-14T04:01:37.097Z,155.60
2023-05-14T04:02:37.223Z,156.25
2023-05-14T04:03:37.306Z,134.70
2023-05-14T04:04:37.082Z,117.53
2023-05-14T04:05:37.049Z,127.17
2023-05-14T04:06:37.127Z,113.32
2023-05-14T04:07:37.058Z,122.99
2023-05-14T04:08:37.068Z,115.79
2023-05-14T04:09:37.050Z,132.97
2023-05-14T04:10:37.006Z,139.07
2023-05-14T04:11:37.002Z,156.84
2023-05-14T04:12:37.021Z,172.82
2023-05-14T04:13:37.060Z,156.15
2023-05-14T04:14:37.004Z,138.96
2023-05-14T04:15:37.026Z,125.45
2023-05-14T04:16:37.025Z,129.05
2023-05-14T04:17:37.309Z,120.44
2023-05-14T04:18:37.068Z,133.18
2023-05-14T04:19:37.041Z,146.37
2023-05-14T04:20:37.064Z,136.48
2023-05-14T04:21:37.071Z,133.35
2023-05-14T04:22:37.147Z,110.53
2023-05-14T04:23:37.078Z,121.66
2023-05-14T04:24:37.141Z,116.07
2023-05-14T04:25:37.136Z,104.36
2023-05-14T04:26:37.160Z,118.67
2023-05-14T04:27:37.176Z,111.66
2023-05-14T04:28:37.215Z,90.16
2023-05-14T04:29:37.287Z,67.95
2023-05-14T04:30:37.584Z,42.95
2023-05-14T04:31:37.298Z,51.53
2023-05-14T04:32:37.332Z,64.41
2023-05-14T04:33:37.349Z,66.91
2023-05-14T04:34:37.773Z,79.59
2023-05-14T04:35:37.426Z,104.48
2023-05-14T04:36:37.461Z,122.06
2023-05-14T04:37:37.584Z,134.90
2023-05-14T04:38:37.569Z,136.40
2023-05-14T04:39:37.598Z,125.78
2023-05-14T04:40:37.631Z,118.63
2023-05-14T04:41:37.613Z,114.67
2023-05-14T04:42:37.654Z,120.77
2023-05-14T04:43:38.881Z,125.16
2023-05-14T04:44:37.744Z,122.78
2023-05-14T04:45:37.754Z,123.78
2023-05-14T04:46:37.803Z,123.74
2023-05-14T04:47:37.811Z,104.24
2023-05-14T04:48:37.781Z,100.62
2023-05-14T04:49:37.820Z,112.74
2023-05-14T04:50:37.850Z,100.01
2023-05-14T04:51:37.781Z,63.46
2023-05-14T04:52:37.805Z,51.69
2023-05-14T04:53:38.136Z,52.39
2023-05-14T04:54:37.928Z,50.99
2023-05-14T04:55:37.867Z,12.40
2023-05-14T04:56:37.986Z,20.55
2023-05-14T04:57:37.932Z,25.39
2023-05-14T04:58:37.963Z,29.98
2023-05-14T04:59:37.981Z,27.05
2023-05-14T05:00:38.053Z,32.60
2023-05-14T05:01:38.207Z,47.12
2023-05-14T05:02:38.156Z,40.34
2023-05-14T05:03:38.201Z,46.31
2023-05-14T05:04:38.229Z,62.95
2023-05-14T05:05:38.284Z,89.77
2023-05-14T05:06:38.334Z,101.18
2023-05-14T05:07:38.537Z,97.29
2023-05-14T05:08:38.417Z,86.67
2023-05-14T05:09:38.446Z,91.04
2023-05-14T05:10:38.441Z,102.86
2023-05-14T05:11:38.480Z,116.87
2023-05-14T05:12:38.598Z,102.89
2023-05-14T05:13:38.611Z,92.67
2023-05-14T05:14:38.658Z,111.79
2023-05-14T05:15:38.788Z,116.06
2023-05-14T05:16:38.771Z,112.42
2023-05-14T05:17:38.860Z,119.34
2023-05-14T05:18:38.951Z,126.84
2023-05-14T05:19:43.794Z,123.52
2023-05-14T05:20:39.868Z,123.61
2023-05-14T05:21:38.862Z,116.01
2023-05-14T05:22:38.804Z,124.17
2023-05-14T05:23:38.910Z,123.68
2023-05-14T05:24:38.879Z,118.92
2023-05-14T05:25:38.850Z,110.86
2023-05-14T05:26:38.791Z,102.72
2023-05-14T05:27:38.827Z,99.30
2023-05-14T05:28:38.892Z,93.11
2023-05-14T05:29:38.871Z,68.78
2023-05-14T05:30:38.815Z,71.81
2023-05-14T05:31:38.871Z,83.97
2023-05-14T05:32:38.846Z,81.75
2023-05-14T05:33:38.733Z,74.24
2023-05-14T05:34:38.762Z,39.77
2023-05-14T05:35:38.743Z,24.11
2023-05-14T05:36:38.756Z,25.00
2023-05-14T05:37:38.760Z,40.31
2023-05-14T05:38:38.750Z,42.44
2023-05-14T05:39:38.730Z,43.79
2023-05-14T05:40:38.734Z,42.78
2023-05-14T05:41:38.800Z,36.03
2023-05-14T05:42:38.786Z,24.32
2023-05-14T05:43:38.793Z,25.64
2023-05-14T05:44:38.812Z,25.59
2023-05-14T05:45:38.793Z,30.08
2023-05-14T05:46:38.768Z,37.51
2023-05-14T05:47:38.862Z,33.92
2023-05-14T05:48:38.815Z,33.18
2023-05-14T05:49:39.802Z,33.25
2023-05-14T05:50:38.817Z,37.58
2023-05-14T05:51:38.832Z,53.59
2023-05-14T05:52:38.943Z,55.59
2023-05-14T05:53:38.894Z,56.16
2023-05-14T05:54:38.989Z,72.66
2023-05-14T05:55:38.983Z,79.23
2023-05-14T05:56:39.042Z,94.16
2023-05-14T05:57:39.094Z,86.81
2023-05-14T05:58:39.134Z,106.97
2023-05-14T05:59:39.151Z,111.39
2023-05-14T06:00:39.262Z,111.08
2023-05-14T06:01:39.286Z,118.81
2023-05-14T06:02:39.455Z,118.90
2023-05-14T06:03:39.334Z,122.27
2023-05-14T06:04:39.349Z,120.19
2023-05-14T06:05:39.425Z,113.83
2023-05-14T06:06:39.333Z,112.67
2023-05-14T06:07:39.395Z,115.07
2023-05-14T06:08:39.402Z,109.47
2023-05-14T06:09:39.401Z,94.51
2023-05-14T06:10:39.412Z,98.99
2023-05-14T06:11:39.448Z,114.21
2023-05-14T06:12:39.423Z,105.98
2023-05-14T06:13:39.425Z,115.10
2023-05-14T06:14:39.538Z,125.59
2023-05-14T06:15:39.574Z,82.65
2023-05-14T06:16:39.637Z,44.66
2023-05-14T06:17:39.685Z,28.05
2023-05-14T06:18:39.759Z,24.03
2023-05-14T06:19:39.853Z,18.80
2023-05-14T06:20:39.761Z,24.93
2023-05-14T06:21:39.725Z,25.47
2023-05-14T06:22:39.738Z,26.39
2023-05-14T06:23:39.685Z,17.68
2023-05-14T06:24:39.733Z,27.96
2023-05-14T06:25:39.701Z,44.03
2023-05-14T06:26:39.763Z,54.96
2023-05-14T06:27:39.733Z,67.05
2023-05-14T06:28:39.715Z,79.29
2023-05-14T06:29:39.751Z,93.58
2023-05-14T06:30:39.728Z,103.77
2023-05-14T06:31:39.759Z,105.42
2023-05-14T06:32:39.789Z,105.66
2023-05-14T06:33:39.934Z,101.46
2023-05-14T06:34:39.853Z,103.50
2023-05-14T06:35:39.863Z,102.04
2023-05-14T06:36:39.917Z,100.92
2023-05-14T06:37:39.922Z,100.37
2023-05-14T06:38:39.959Z,92.96
2023-05-14T06:39:40.053Z,90.79
2023-05-14T06:40:40.091Z,102.49
2023-05-14T06:41:40.114Z,97.38
2023-05-14T06:42:40.225Z,95.56
2023-05-14T06:43:40.246Z,88.94
2023-05-14T06:44:40.340Z,62.07
2023-05-14T06:45:40.354Z,60.03
2023-05-14T06:46:40.450Z,79.06
2023-05-14T06:47:40.460Z,79.34
2023-05-14T06:48:40.457Z,75.90
2023-05-14T06:49:40.479Z,76.76
2023-05-14T06:50:40.559Z,74.65
2023-05-14T06:51:40.533Z,85.70
2023-05-14T06:52:40.586Z,96.99
2023-05-14T06:53:40.613Z,103.37
2023-05-14T06:54:41.850Z,85.86
2023-05-14T06:55:40.718Z,82.64
2023-05-14T06:56:40.777Z,83.69
2023-05-14T06:57:41.104Z,90.00
2023-05-14T06:58:40.877Z,87.62
2023-05-14T06:59:41.049Z,54.71
2023-05-14T07:00:41.061Z,36.88
2023-05-14T07:01:41.159Z,38.51
2023-05-14T07:02:41.096Z,48.51
2023-05-14T07:03:41.148Z,39.65
2023-05-14T07:04:41.320Z,55.52
2023-05-14T07:05:41.323Z,57.93
2023-05-14T07:06:41.299Z,57.91
2023-05-14T07:07:41.323Z,62.99
2023-05-14T07:08:41.388Z,47.74
2023-05-14T07:09:41.433Z,49.19
2023-05-14T07:10:41.439Z,59.37
2023-05-14T07:11:41.534Z,62.32
2023-05-14T07:12:41.608Z,37.12
2023-05-14T07:13:41.547Z,26.19
2023-05-14T07:14:41.594Z,38.78
2023-05-14T07:15:41.666Z,46.25
2023-05-14T07:16:41.714Z,48.99
2023-05-14T07:17:41.721Z,42.19
2023-05-14T07:18:41.733Z,37.19
2023-05-14T07:19:41.733Z,26.78
2023-05-14T07:20:41.763Z,25.69
2023-05-14T07:21:41.906Z,27.69
2023-05-14T07:22:41.885Z,31.46
2023-05-14T07:23:41.929Z,34.57
2023-05-14T07:24:41.960Z,46.94
2023-05-14T07:25:41.965Z,56.30
2023-05-14T07:26:41.983Z,60.60
2023-05-14T07:27:41.967Z,55.65
2023-05-14T07:28:42.043Z,53.73
2023-05-14T07:29:42.009Z,62.14
2023-05-14T07:30:42.022Z,65.53
2023-05-14T07:31:42.122Z,68.83
2023-05-14T07:32:42.096Z,65.17
2023-05-14T07:33:42.114Z,71.14
2023-05-14T07:34:42.152Z,70.40
2023-05-14T07:35:42.136Z,81.25
2023-05-14T07:36:42.183Z,86.38
2023-05-14T07:37:42.133Z,88.37
2023-05-14T07:38:42.153Z,77.64
2023-05-14T07:39:42.145Z,72.47
2023-05-14T07:40:42.232Z,58.69
2023-05-14T07:41:42.262Z,52.02
2023-05-14T07:42:42.295Z,51.10
2023-05-14T07:43:42.364Z,45.52
2023-05-14T07:44:42.394Z,45.61
2023-05-14T07:45:42.446Z,51.86
2023-05-14T07:46:42.448Z,58.99
2023-05-14T07:47:42.482Z,66.16
2023-05-14T07:48:42.554Z,74.56
2023-05-14T07:49:42.521Z,82.40
2023-05-14T07:50:42.544Z,80.69
2023-05-14T07:51:42.538Z,84.32
2023-05-14T07:52:42.606Z,68.79
2023-05-14T07:53:42.658Z,59.96
2023-05-14T07:54:42.755Z,56.98
2023-05-14T07:55:42.760Z,55.39
2023-05-14T07:56:42.770Z,62.24
2023-05-14T07:57:42.884Z,48.98
2023-05-14T07:58:42.815Z,35.97
2023-05-14T07:59:42.866Z,41.22
2023-05-14T08:00:42.890Z,27.00
2023-05-14T08:01:42.939Z,28.39
2023-05-14T08:02:43.138Z,36.43
2023-05-14T08:03:43.062Z,50.74
2023-05-14T08:04:43.053Z,32.11
2023-05-14T08:05:43.046Z,38.65
2023-05-14T08:06:43.112Z,22.54
2023-05-14T08:07:43.166Z,30.69
2023-05-14T08:08:43.141Z,29.93
2023-05-14T08:09:43.203Z,28.44
2023-05-14T08:10:43.230Z,24.82
2023-05-14T08:11:43.266Z,22.53
2023-05-14T08:12:43.380Z,30.74
2023-05-14T08:13:43.444Z,37.70
2023-05-14T08:14:43.465Z,40.25
2023-05-14T08:15:43.522Z,31.68
2023-05-14T08:16:43.539Z,40.23
2023-05-14T08:17:43.511Z,30.21
2023-05-14T08:18:43.627Z,47.10
2023-05-14T08:19:43.523Z,50.91
2023-05-14T08:20:43.546Z,58.00
2023-05-14T08:21:43.549Z,69.84
2023-05-14T08:22:43.569Z,59.38
2023-05-14T08:23:43.720Z,66.63
2023-05-14T08:24:43.711Z,70.13
2023-05-14T08:25:43.780Z,41.81
2023-05-14T08:26:43.806Z,17.80
2023-05-14T08:27:43.823Z,22.81
2023-05-14T08:28:43.890Z,24.12
2023-05-14T08:29:43.917Z,16.25
2023-05-14T08:30:43.938Z,32.55
2023-05-14T08:31:44.075Z,51.78
2023-05-14T08:32:44.089Z,50.70
2023-05-14T08:33:44.101Z,28.17
2023-05-14T08:34:44.233Z,28.16
2023-05-14T08:35:44.121Z,38.52
2023-05-14T08:36:44.156Z,40.39
2023-05-14T08:37:44.271Z,37.49
2023-05-14T08:38:44.276Z,46.73
2023-05-14T08:39:44.318Z,64.95
2023-05-14T08:40:44.408Z,50.35
2023-05-14T08:41:44.421Z,62.63
2023-05-14T08:42:44.456Z,87.48
2023-05-14T08:43:44.472Z,63.19
2023-05-14T08:44:44.516Z,31.60
2023-05-14T08:45:44.541Z,4.79
2023-05-14T08:46:44.575Z,18.44
2023-05-14T08:47:44.633Z,24.40
2023-05-14T08:48:44.640Z,28.83
2023-05-14T08:49:44.600Z,16.80
2023-05-14T08:50:44.667Z,11.52
2023-05-14T08:51:45.957Z,10.78
2023-05-14T08:52:44.705Z,0.00
2023-05-14T08:53:44.785Z,13.90
2023-05-14T08:54:44.809Z,29.81
2023-05-14T08:55:44.848Z,25.30
2023-05-14T08:56:44.889Z,26.80
2023-05-14T08:57:44.944Z,1.72
2023-05-14T08:58:44.987Z,8.92
2023-05-14T08:59:45.062Z,21.28
2023-05-14T09:00:45.011Z,25.09
2023-05-14T09:01:45.025Z,25.21
2023-05-14T09:02:45.415Z,24.92
2023-05-14T09:03:45.070Z,19.60
2023-05-14T09:04:45.095Z,23.24
2023-05-14T09:05:45.158Z,31.24
2023-05-14T09:06:45.106Z,27.08
2023-05-14T09:07:45.174Z,22.13
2023-05-14T09:08:45.469Z,25.44
2023-05-14T09:09:45.207Z,25.50
2023-05-14T09:10:45.257Z,28.77
2023-05-14T09:11:45.265Z,44.73
2023-05-14T09:12:45.342Z,36.91
2023-05-14T09:13:45.334Z,36.28
2023-05-14T09:14:45.443Z,26.22
2023-05-14T09:15:45.463Z,26.94
2023-05-14T09:16:45.923Z,41.54
2023-05-14T09:17:45.543Z,29.64
2023-05-14T09:18:45.710Z,32.62
2023-05-14T09:19:45.585Z,24.97
2023-05-14T09:20:45.596Z,27.87
2023-05-14T09:21:45.673Z,33.92
2023-05-14T09:22:45.701Z,41.22
2023-05-14T09:23:45.693Z,39.64
2023-05-14T09:24:45.720Z,44.77
2023-05-14T09:25:45.747Z,41.16
2023-05-14T09:26:45.711Z,49.13
2023-05-14T09:27:45.807Z,42.12
2023-05-14T09:28:45.786Z,41.02
2023-05-14T09:29:45.848Z,46.63
2023-05-14T09:30:45.901Z,55.15
2023-05-14T09:31:45.996Z,58.82
2023-05-14T09:32:46.093Z,47.82
2023-05-14T09:33:46.014Z,48.13
2023-05-14T09:34:46.028Z,44.63
2023-05-14T09:35:46.053Z,42.02
2023-05-14T09:36:46.114Z,43.23
2023-05-14T09:37:46.169Z,41.32
2023-05-14T09:38:46.509Z,40.99
2023-05-14T09:39:46.253Z,38.72
2023-05-14T09:40:46.316Z,41.11
2023-05-14T09:41:46.333Z,38.49
2023-05-14T09:42:46.346Z,36.51
2023-05-14T09:43:46.372Z,42.39
2023-05-14T09:44:46.484Z,56.73
2023-05-14T09:45:46.466Z,49.14
2023-05-14T09:46:46.481Z,31.57
2023-05-14T09:47:46.658Z,13.74
2023-05-14T09:48:46.685Z,23.40
2023-05-14T09:49:46.608Z,27.13
2023-05-14T09:50:46.649Z,39.82
2023-05-14T09:51:46.642Z,45.43
2023-05-14T09:52:46.684Z,48.67
2023-05-14T09:53:46.795Z,55.87
2023-05-14T09:54:46.783Z,49.89
2023-05-14T09:55:46.813Z,41.37
2023-05-14T09:56:46.847Z,40.64
2023-05-14T09:57:46.875Z,44.35
2023-05-14T09:58:46.915Z,43.00
2023-05-14T09:59:46.937Z,38.63
2023-05-14T10:00:47.041Z,38.53
2023-05-14T10:01:46.989Z,42.97
2023-05-14T10:02:47.118Z,49.56
2023-05-14T10:03:47.021Z,39.88
2023-05-14T10:04:47.126Z,40.35
2023-05-14T10:05:47.086Z,44.98
2023-05-14T10:06:47.114Z,50.14
2023-05-14T10:07:47.119Z,46.61
2023-05-14T10:08:47.182Z,52.62
2023-05-14T10:09:47.261Z,58.17
2023-05-14T10:10:47.263Z,58.90
2023-05-14T10:11:47.325Z,57.58
2023-05-14T10:12:47.324Z,62.69
2023-05-14T10:13:47.357Z,62.23
2023-05-14T10:14:47.334Z,66.61
2023-05-14T10:15:47.347Z,64.83
2023-05-14T10:16:47.732Z,61.44
2023-05-14T10:17:47.488Z,57.21
2023-05-14T10:18:47.508Z,53.59
2023-05-14T10:19:47.563Z,48.81
2023-05-14T10:20:47.526Z,58.79
2023-05-14T10:21:47.548Z,69.27
2023-05-14T10:22:47.557Z,64.23
2023-05-14T10:23:47.557Z,65.40
2023-05-14T10:24:47.655Z,50.79
2023-05-14T10:25:47.739Z,50.66
2023-05-14T10:26:47.670Z,54.61
2023-05-14T10:27:47.754Z,59.56
2023-05-14T10:28:47.749Z,62.76
2023-05-14T10:29:47.852Z,59.64
2023-05-14T10:30:47.887Z,45.93
2023-05-14T10:31:47.884Z,49.59
2023-05-14T10:32:47.917Z,41.20
2023-05-14T10:33:47.946Z,39.43
2023-05-14T10:34:48.030Z,46.50
2023-05-14T10:35:48.027Z,42.61
2023-05-14T10:36:48.081Z,48.98
2023-05-14T10:37:48.082Z,57.83
2023-05-14T10:38:48.423Z,56.94
2023-05-14T10:39:49.294Z,46.06
2023-05-14T10:40:48.244Z,45.71
2023-05-14T10:41:49.069Z,50.58
2023-05-14T10:42:48.314Z,62.06
2023-05-14T10:43:48.365Z,55.91
2023-05-14T10:44:48.425Z,66.03
2023-05-14T10:45:48.437Z,74.79
2023-05-14T10:46:48.512Z,65.03
2023-05-14T10:47:48.558Z,66.90
2023-05-14T10:48:48.496Z,70.63
2023-05-14T10:49:48.515Z,56.85
2023-05-14T10:50:48.592Z,57.86
2023-05-14T10:51:48.507Z,63.74
2023-05-14T10:52:48.499Z,54.41
2023-05-14T10:53:48.568Z,49.59
2023-05-14T10:54:48.568Z,54.32
2023-05-14T10:55:48.600Z,64.81
2023-05-14T10:56:48.610Z,72.52
2023-05-14T10:57:48.674Z,79.50
2023-05-14T10:58:48.700Z,89.12
2023-05-14T10:59:48.874Z,81.60
2023-05-14T11:00:48.827Z,76.49
2023-05-14T11:01:48.954Z,64.12
2023-05-14T11:02:48.987Z,64.79
2023-05-14T11:03:48.971Z,59.92
2023-05-14T11:04:48.961Z,54.69
2023-05-14T11:05:48.987Z,53.87
2023-05-14T11:06:49.027Z,62.54
2023-05-14T11:07:49.100Z,60.39
2023-05-14T11:08:49.088Z,57.58
2023-05-14T11:09:49.165Z,54.02
2023-05-14T11:10:49.191Z,53.18
2023-05-14T11:11:49.202Z,52.95
2023-05-14T11:12:49.236Z,57.43
2023-05-14T11:13:49.286Z,64.16
2023-05-14T11:14:49.359Z,59.67
2023-05-14T11:15:49.320Z,51.32
2023-05-14T11:16:49.360Z,46.13
2023-05-14T11:17:49.386Z,50.36
2023-05-14T11:18:49.403Z,53.68
2023-05-14T11:19:51.085Z,50.39
2023-05-14T11:20:49.506Z,59.38
2023-05-14T11:21:49.595Z,69.49
2023-05-14T11:22:49.861Z,75.13
2023-05-14T11:23:49.608Z,82.26
2023-05-14T11:24:49.619Z,77.67
2023-05-14T11:25:49.725Z,74.67
2023-05-14T11:26:49.734Z,83.24
2023-05-14T11:27:49.816Z,85.10
2023-05-14T11:28:49.760Z,79.45
2023-05-14T11:29:49.845Z,85.45
2023-05-14T11:30:49.812Z,86.57
2023-05-14T11:31:49.866Z,77.25
2023-05-14T11:32:49.955Z,82.30
2023-05-14T11:33:49.913Z,94.92
2023-05-14T11:34:50.037Z,96.55
2023-05-14T11:35:49.977Z,91.14
2023-05-14T11:36:50.042Z,87.57
2023-05-14T11:37:50.072Z,94.67
2023-05-14T11:38:50.108Z,94.36
2023-05-14T11:39:50.158Z,84.20
2023-05-14T11:40:50.182Z,88.76
2023-05-14T11:41:50.240Z,85.42
2023-05-14T11:42:50.235Z,77.70
2023-05-14T11:43:50.311Z,63.78
2023-05-14T11:44:50.342Z,64.03
2023-05-14T11:45:50.337Z,70.74
2023-05-14T11:46:50.379Z,63.13
2023-05-14T11:47:50.454Z,52.71
2023-05-14T11:48:50.409Z,45.57
2023-05-14T11:49:50.496Z,39.46
2023-05-14T11:50:50.490Z,32.67
2023-05-14T11:51:50.555Z,31.19
2023-05-14T11:52:50.573Z,39.30
2023-05-14T11:53:50.624Z,38.39
2023-05-14T11:54:50.782Z,40.82
2023-05-14T11:55:50.761Z,37.67
2023-05-14T11:56:50.801Z,39.75
2023-05-14T11:57:50.854Z,46.94
2023-05-14T11:58:50.869Z,52.69
2023-05-14T11:59:50.851Z,63.61
2023-05-14T12:00:50.928Z,65.13
2023-05-14T12:01:50.975Z,62.98
2023-05-14T12:02:51.183Z,72.24
2023-05-14T12:03:51.235Z,76.47
2023-05-14T12:04:51.219Z,90.47
2023-05-14T12:05:51.099Z,84.62
2023-05-14T12:06:51.167Z,86.75
2023-05-14T12:07:51.185Z,78.00
2023-05-14T12:08:51.198Z,81.40
2023-05-14T12:09:51.294Z,59.52
2023-05-14T12:10:51.292Z,63.41
2023-05-14T12:11:51.308Z,74.48
2023-05-14T12:12:51.355Z,86.21
2023-05-14T12:13:51.371Z,98.55
2023-05-14T12:14:51.413Z,91.17
2023-05-14T12:15:51.393Z,89.62
2023-05-14T12:16:51.396Z,90.12
2023-05-14T12:17:51.510Z,83.57
2023-05-14T12:18:51.487Z,80.80
2023-05-14T12:19:51.504Z,76.66
2023-05-14T12:20:51.558Z,79.38
2023-05-14T12:21:51.555Z,90.85
2023-05-14T12:22:51.577Z,91.91
2023-05-14T12:23:51.594Z,89.58
2023-05-14T12:24:51.591Z,89.04
2023-05-14T12:25:51.658Z,98.30
2023-05-14T12:26:51.662Z,102.45
2023-05-14T12:27:51.662Z,101.17
2023-05-14T12:28:51.667Z,98.45
2023-05-14T12:29:51.742Z,98.99
2023-05-14T12:30:51.789Z,85.18
2023-05-14T12:31:51.892Z,79.47
2023-05-14T12:32:52.221Z,82.15
2023-05-14T12:33:51.971Z,84.71
2023-05-14T12:34:51.980Z,84.57
2023-05-14T12:35:52.031Z,89.09
2023-05-14T12:36:52.104Z,96.34
2023-05-14T12:37:52.119Z,101.58
2023-05-14T12:38:52.159Z,96.80
2023-05-14T12:39:52.166Z,95.87
2023-05-14T12:40:52.165Z,92.81
2023-05-14T12:41:52.161Z,92.91
2023-05-14T12:42:52.228Z,84.71
2023-05-14T12:43:52.284Z,83.43
2023-05-14T12:44:52.368Z,83.84
2023-05-14T12:45:52.401Z,88.09
2023-05-14T12:46:52.470Z,103.94